sensor_id;sensor_type;location;lat;lon;timestamp;pressure;altitude;pressure_sealevel;temperature;humidity
76728;BME280;65652;53.132;18.026;2023-03-23T00:02:26;100304.54;;;11.26;69.83
76728;BME280;65652;53.132;18.026;2023-03-23T00:04:54;100298.34;;;11.26;69.68
76728;BME280;65652;53.132;18.026;2023-03-23T00:07:22;100300.67;;;11.26;69.62
76728;BME280;65652;53.132;18.026;2023-03-23T00:09:50;100297.30;;;11.26;69.64
76728;BME280;65652;53.132;18.026;2023-03-23T00:12:21;100300.95;;;11.25;69.73
76728;BME280;65652;53.132;18.026;2023-03-23T00:17:28;100293.96;;;11.19;69.71
76728;BME280;65652;53.132;18.026;2023-03-23T00:19:55;100298.05;;;11.17;69.62
76728;BME280;65652;53.132;18.026;2023-03-23T00:22:22;100295.59;;;11.14;69.63
76728;BME280;65652;53.132;18.026;2023-03-23T00:24:51;100295.34;;;11.13;69.63
76728;BME280;65652;53.132;18.026;2023-03-23T00:27:19;100297.02;;;11.12;69.61
76728;BME280;65652;53.132;18.026;2023-03-23T00:29:51;100296.24;;;11.11;69.61
76728;BME280;65652;53.132;18.026;2023-03-23T00:32:23;100295.66;;;11.10;69.76
76728;BME280;65652;53.132;18.026;2023-03-23T00:34:57;100296.17;;;11.08;69.71
76728;BME280;65652;53.132;18.026;2023-03-23T00:37:27;100294.46;;;11.06;69.54
76728;BME280;65652;53.132;18.026;2023-03-23T00:39:54;100290.06;;;11.04;69.61
76728;BME280;65652;53.132;18.026;2023-03-23T00:42:24;100287.89;;;11.01;69.74
76728;BME280;65652;53.132;18.026;2023-03-23T00:44:51;100282.27;;;10.99;69.88
76728;BME280;65652;53.132;18.026;2023-03-23T00:47:27;100277.23;;;10.96;69.77
76728;BME280;65652;53.132;18.026;2023-03-23T00:49:54;100275.39;;;10.93;69.82
76728;BME280;65652;53.132;18.026;2023-03-23T00:52:23;100266.67;;;10.92;69.88
76728;BME280;65652;53.132;18.026;2023-03-23T00:54:50;100267.52;;;10.91;69.73
76728;BME280;65652;53.132;18.026;2023-03-23T00:57:17;100265.82;;;10.90;69.79
76728;BME280;65652;53.132;18.026;2023-03-23T00:59:44;100265.14;;;10.92;69.84
76728;BME280;65652;53.132;18.026;2023-03-23T01:02:11;100263.41;;;10.93;69.71
76728;BME280;65652;53.132;18.026;2023-03-23T01:04:39;100262.98;;;10.96;69.91
76728;BME280;65652;53.132;18.026;2023-03-23T01:07:06;100261.67;;;11.00;69.75
76728;BME280;65652;53.132;18.026;2023-03-23T01:09:34;100264.57;;;11.01;69.93
76728;BME280;65652;53.132;18.026;2023-03-23T01:12:02;100262.25;;;11.01;69.78
76728;BME280;65652;53.132;18.026;2023-03-23T01:14:33;100255.25;;;11.00;69.66
76728;BME280;65652;53.132;18.026;2023-03-23T01:16:59;100253.95;;;10.99;69.62
76728;BME280;65652;53.132;18.026;2023-03-23T01:19:26;100253.59;;;10.98;69.73
76728;BME280;65652;53.132;18.026;2023-03-23T01:21:54;100257.23;;;10.97;69.50
76728;BME280;65652;53.132;18.026;2023-03-23T01:24:21;100255.48;;;10.94;69.68
76728;BME280;65652;53.132;18.026;2023-03-23T01:26:49;100256.52;;;10.93;69.58
76728;BME280;65652;53.132;18.026;2023-03-23T01:29:16;100260.52;;;10.92;69.68
76728;BME280;65652;53.132;18.026;2023-03-23T01:31:43;100255.24;;;10.90;69.79
76728;BME280;65652;53.132;18.026;2023-03-23T01:34:10;100249.45;;;10.88;69.74
76728;BME280;65652;53.132;18.026;2023-03-23T01:36:38;100241.48;;;10.86;70.09
76728;BME280;65652;53.132;18.026;2023-03-23T01:39:06;100240.06;;;10.84;69.87
76728;BME280;65652;53.132;18.026;2023-03-23T01:41:34;100236.02;;;10.84;69.89
76728;BME280;65652;53.132;18.026;2023-03-23T01:44:08;100233.98;;;10.83;69.87
76728;BME280;65652;53.132;18.026;2023-03-23T01:47:01;100234.45;;;10.83;69.99
76728;BME280;65652;53.132;18.026;2023-03-23T01:49:33;100231.70;;;10.83;70.08
76728;BME280;65652;53.132;18.026;2023-03-23T01:52:16;100222.54;;;10.83;69.92
76728;BME280;65652;53.132;18.026;2023-03-23T01:54:49;100227.41;;;10.82;69.83
76728;BME280;65652;53.132;18.026;2023-03-23T01:57:19;100224.48;;;10.81;69.78
76728;BME280;65652;53.132;18.026;2023-03-23T01:59:50;100224.41;;;10.80;69.86
76728;BME280;65652;53.132;18.026;2023-03-23T02:02:25;100223.79;;;10.75;69.60
76728;BME280;65652;53.132;18.026;2023-03-23T02:04:58;100222.09;;;10.71;69.96
76728;BME280;65652;53.132;18.026;2023-03-23T02:07:26;100224.39;;;10.67;70.14
76728;BME280;65652;53.132;18.026;2023-03-23T02:09:57;100220.14;;;10.64;70.04
76728;BME280;65652;53.132;18.026;2023-03-23T02:12:24;100216.24;;;10.60;70.15
76728;BME280;65652;53.132;18.026;2023-03-23T02:14:51;100209.85;;;10.57;70.30
76728;BME280;65652;53.132;18.026;2023-03-23T02:17:27;100210.95;;;10.55;70.11
76728;BME280;65652;53.132;18.026;2023-03-23T02:20:10;100210.77;;;10.52;70.34
76728;BME280;65652;53.132;18.026;2023-03-23T02:26:01;100183.62;;;10.45;70.44
76728;BME280;65652;53.132;18.026;2023-03-23T02:28:34;100185.92;;;10.39;70.72
76728;BME280;65652;53.132;18.026;2023-03-23T02:34:18;100186.84;;;10.35;70.66
76728;BME280;65652;53.132;18.026;2023-03-23T02:36:52;100181.46;;;10.32;70.81
76728;BME280;65652;53.132;18.026;2023-03-23T02:39:29;100180.33;;;10.32;70.65
76728;BME280;65652;53.132;18.026;2023-03-23T02:42:05;100183.64;;;10.30;70.56
76728;BME280;65652;53.132;18.026;2023-03-23T02:44:35;100176.76;;;10.28;70.78
76728;BME280;65652;53.132;18.026;2023-03-23T02:47:07;100172.34;;;10.28;70.79
76728;BME280;65652;53.132;18.026;2023-03-23T02:49:39;100171.97;;;10.28;70.54
76728;BME280;65652;53.132;18.026;2023-03-23T02:52:11;100164.47;;;10.29;70.88
76728;BME280;65652;53.132;18.026;2023-03-23T02:54:43;100159.27;;;10.27;70.79
76728;BME280;65652;53.132;18.026;2023-03-23T02:57:11;100160.67;;;10.23;70.91
76728;BME280;65652;53.132;18.026;2023-03-23T02:59:40;100161.77;;;10.21;71.07
76728;BME280;65652;53.132;18.026;2023-03-23T03:02:23;100164.81;;;10.17;70.97
76728;BME280;65652;53.132;18.026;2023-03-23T03:05:03;100162.27;;;10.12;70.64
76728;BME280;65652;53.132;18.026;2023-03-23T03:07:36;100171.41;;;10.09;70.92
76728;BME280;65652;53.132;18.026;2023-03-23T03:10:19;100171.98;;;10.04;70.97
76728;BME280;65652;53.132;18.026;2023-03-23T03:13:12;100172.62;;;10.01;71.17
76728;BME280;65652;53.132;18.026;2023-03-23T03:18:20;100174.54;;;9.99;71.18
76728;BME280;65652;53.132;18.026;2023-03-23T03:21:03;100169.27;;;9.99;71.17
76728;BME280;65652;53.132;18.026;2023-03-23T03:23:33;100164.26;;;10.00;71.14
76728;BME280;65652;53.132;18.026;2023-03-23T03:26:03;100163.88;;;10.00;71.19
76728;BME280;65652;53.132;18.026;2023-03-23T03:28:41;100165.30;;;10.00;71.28
76728;BME280;65652;53.132;18.026;2023-03-23T03:31:08;100157.33;;;9.98;71.34
76728;BME280;65652;53.132;18.026;2023-03-23T03:33:36;100154.99;;;9.97;71.53
76728;BME280;65652;53.132;18.026;2023-03-23T03:36:04;100161.39;;;9.94;71.27
76728;BME280;65652;53.132;18.026;2023-03-23T03:38:46;100160.38;;;9.92;71.73
76728;BME280;65652;53.132;18.026;2023-03-23T03:41:15;100154.45;;;9.90;71.44
76728;BME280;65652;53.132;18.026;2023-03-23T03:43:42;100153.23;;;9.88;71.45
76728;BME280;65652;53.132;18.026;2023-03-23T03:46:09;100151.84;;;9.86;71.55
76728;BME280;65652;53.132;18.026;2023-03-23T03:48:36;100150.77;;;9.84;71.57
76728;BME280;65652;53.132;18.026;2023-03-23T03:51:03;100146.38;;;9.82;71.59
76728;BME280;65652;53.132;18.026;2023-03-23T03:53:31;100140.39;;;9.80;71.53
76728;BME280;65652;53.132;18.026;2023-03-23T03:55:58;100133.88;;;9.78;71.60
76728;BME280;65652;53.132;18.026;2023-03-23T03:58:27;100132.16;;;9.75;71.65
76728;BME280;65652;53.132;18.026;2023-03-23T04:01:05;100141.07;;;9.74;71.76
76728;BME280;65652;53.132;18.026;2023-03-23T04:03:36;100139.80;;;9.71;71.86
76728;BME280;65652;53.132;18.026;2023-03-23T04:06:11;100132.20;;;9.67;71.93
76728;BME280;65652;53.132;18.026;2023-03-23T04:08:41;100136.38;;;9.64;72.01
76728;BME280;65652;53.132;18.026;2023-03-23T04:11:11;100135.17;;;9.62;71.86
76728;BME280;65652;53.132;18.026;2023-03-23T04:13:38;100136.96;;;9.60;72.11
76728;BME280;65652;53.132;18.026;2023-03-23T04:16:14;100135.87;;;9.56;71.99
76728;BME280;65652;53.132;18.026;2023-03-23T04:18:43;100138.86;;;9.53;72.06
76728;BME280;65652;53.132;18.026;2023-03-23T04:21:10;100141.30;;;9.49;72.41
76728;BME280;65652;53.132;18.026;2023-03-23T04:23:37;100141.23;;;9.46;72.31
76728;BME280;65652;53.132;18.026;2023-03-23T04:26:06;100143.29;;;9.45;72.15
76728;BME280;65652;53.132;18.026;2023-03-23T04:28:39;100145.42;;;9.43;72.59
76728;BME280;65652;53.132;18.026;2023-03-23T04:31:26;100138.90;;;9.43;72.71
76728;BME280;65652;53.132;18.026;2023-03-23T04:33:58;100136.68;;;9.44;72.40
76728;BME280;65652;53.132;18.026;2023-03-23T04:36:27;100135.63;;;9.46;72.46
76728;BME280;65652;53.132;18.026;2023-03-23T04:39:03;100126.73;;;9.47;72.07
76728;BME280;65652;53.132;18.026;2023-03-23T04:41:34;100124.44;;;9.48;72.10
76728;BME280;65652;53.132;18.026;2023-03-23T04:44:20;100126.41;;;9.52;72.03
76728;BME280;65652;53.132;18.026;2023-03-23T04:46:55;100127.95;;;9.54;72.52
76728;BME280;65652;53.132;18.026;2023-03-23T04:49:22;100123.74;;;9.58;72.19
76728;BME280;65652;53.132;18.026;2023-03-23T04:51:53;100114.19;;;9.60;72.22
76728;BME280;65652;53.132;18.026;2023-03-23T04:54:43;100114.10;;;9.63;72.02
76728;BME280;65652;53.132;18.026;2023-03-23T04:57:11;100107.73;;;9.65;72.02
76728;BME280;65652;53.132;18.026;2023-03-23T04:59:39;100107.01;;;9.67;72.21
76728;BME280;65652;53.132;18.026;2023-03-23T05:02:17;100111.04;;;9.71;72.14
76728;BME280;65652;53.132;18.026;2023-03-23T05:04:46;100112.73;;;9.74;71.67
76728;BME280;65652;53.132;18.026;2023-03-23T05:07:16;100113.15;;;9.77;71.92
76728;BME280;65652;53.132;18.026;2023-03-23T05:09:47;100103.86;;;9.80;71.87
76728;BME280;65652;53.132;18.026;2023-03-23T05:12:14;100095.45;;;9.83;71.70
76728;BME280;65652;53.132;18.026;2023-03-23T05:15:03;100089.59;;;9.87;71.62
76728;BME280;65652;53.132;18.026;2023-03-23T05:17:31;100087.11;;;9.91;71.44
76728;BME280;65652;53.132;18.026;2023-03-23T05:20:01;100086.38;;;9.95;71.42
76728;BME280;65652;53.132;18.026;2023-03-23T05:22:36;100087.39;;;9.99;71.09
76728;BME280;65652;53.132;18.026;2023-03-23T05:25:06;100090.90;;;10.03;70.99
76728;BME280;65652;53.132;18.026;2023-03-23T05:27:39;100093.94;;;10.09;70.84
76728;BME280;65652;53.132;18.026;2023-03-23T05:30:19;100089.63;;;10.13;70.87
76728;BME280;65652;53.132;18.026;2023-03-23T05:32:47;100087.50;;;10.19;70.78
76728;BME280;65652;53.132;18.026;2023-03-23T05:35:27;100087.11;;;10.25;70.60
76728;BME280;65652;53.132;18.026;2023-03-23T05:37:56;100089.92;;;10.30;70.65
76728;BME280;65652;53.132;18.026;2023-03-23T05:40:24;100081.55;;;10.34;70.34
76728;BME280;65652;53.132;18.026;2023-03-23T05:43:15;100066.77;;;10.41;70.49
76728;BME280;65652;53.132;18.026;2023-03-23T05:45:48;100066.45;;;10.47;70.12
76728;BME280;65652;53.132;18.026;2023-03-23T05:48:16;100063.09;;;10.52;69.78
76728;BME280;65652;53.132;18.026;2023-03-23T05:50:43;100055.18;;;10.57;69.94
76728;BME280;65652;53.132;18.026;2023-03-23T05:53:11;100057.91;;;10.63;69.63
76728;BME280;65652;53.132;18.026;2023-03-23T05:55:39;100057.40;;;10.71;69.52
76728;BME280;65652;53.132;18.026;2023-03-23T05:58:26;100052.45;;;10.77;69.24
76728;BME280;65652;53.132;18.026;2023-03-23T06:00:54;100048.30;;;10.83;68.96
76728;BME280;65652;53.132;18.026;2023-03-23T06:03:24;100038.65;;;10.90;68.80
76728;BME280;65652;53.132;18.026;2023-03-23T06:06:10;100044.13;;;10.99;68.61
76728;BME280;65652;53.132;18.026;2023-03-23T06:08:47;100050.41;;;11.08;68.37
76728;BME280;65652;53.132;18.026;2023-03-23T06:11:17;100048.77;;;11.17;68.28
76728;BME280;65652;53.132;18.026;2023-03-23T06:13:53;100051.30;;;11.24;67.84
76728;BME280;65652;53.132;18.026;2023-03-23T06:16:20;100051.94;;;11.30;67.63
76728;BME280;65652;53.132;18.026;2023-03-23T06:18:56;100036.14;;;11.35;67.65
76728;BME280;65652;53.132;18.026;2023-03-23T06:21:32;100022.19;;;11.40;67.61
76728;BME280;65652;53.132;18.026;2023-03-23T06:24:13;100022.43;;;11.45;67.30
76728;BME280;65652;53.132;18.026;2023-03-23T06:26:40;100028.55;;;11.49;67.19
76728;BME280;65652;53.132;18.026;2023-03-23T06:29:13;100045.15;;;11.55;67.31
76728;BME280;65652;53.132;18.026;2023-03-23T06:31:47;100048.85;;;11.62;66.73
76728;BME280;65652;53.132;18.026;2023-03-23T06:34:15;100050.27;;;11.69;66.74
76728;BME280;65652;53.132;18.026;2023-03-23T06:37:07;100042.98;;;11.78;66.35
76728;BME280;65652;53.132;18.026;2023-03-23T06:39:40;100038.42;;;11.84;66.12
76728;BME280;65652;53.132;18.026;2023-03-23T06:42:23;100036.33;;;11.90;65.96
76728;BME280;65652;53.132;18.026;2023-03-23T06:45:10;100032.43;;;11.99;66.01
76728;BME280;65652;53.132;18.026;2023-03-23T06:47:37;100035.81;;;12.05;65.11
76728;BME280;65652;53.132;18.026;2023-03-23T06:50:06;100034.91;;;12.11;65.00
76728;BME280;65652;53.132;18.026;2023-03-23T06:52:34;100043.23;;;12.20;65.08
76728;BME280;65652;53.132;18.026;2023-03-23T06:55:02;100049.89;;;12.30;64.54
76728;BME280;65652;53.132;18.026;2023-03-23T06:57:28;100046.23;;;12.40;64.67
76728;BME280;65652;53.132;18.026;2023-03-23T06:59:55;100041.39;;;12.48;63.97
76728;BME280;65652;53.132;18.026;2023-03-23T07:02:23;100037.71;;;12.60;64.31
76728;BME280;65652;53.132;18.026;2023-03-23T07:04:51;100037.72;;;12.62;64.08
76728;BME280;65652;53.132;18.026;2023-03-23T07:07:22;100043.23;;;12.64;63.77
76728;BME280;65652;53.132;18.026;2023-03-23T07:09:52;100047.92;;;12.63;62.85
76728;BME280;65652;53.132;18.026;2023-03-23T07:12:22;100052.99;;;12.62;62.78
76728;BME280;65652;53.132;18.026;2023-03-23T07:14:50;100050.33;;;12.63;62.38
76728;BME280;65652;53.132;18.026;2023-03-23T07:17:17;100047.55;;;12.67;62.08
76728;BME280;65652;53.132;18.026;2023-03-23T07:19:59;100041.34;;;12.77;62.25
76728;BME280;65652;53.132;18.026;2023-03-23T07:22:26;100032.83;;;12.86;61.81
76728;BME280;65652;53.132;18.026;2023-03-23T07:24:59;100024.25;;;12.95;61.16
76728;BME280;65652;53.132;18.026;2023-03-23T07:27:32;100017.90;;;13.05;60.76
76728;BME280;65652;53.132;18.026;2023-03-23T07:30:00;100022.70;;;13.29;60.88
76728;BME280;65652;53.132;18.026;2023-03-23T07:32:27;100019.41;;;13.70;59.93
76728;BME280;65652;53.132;18.026;2023-03-23T07:34:54;100021.74;;;13.95;59.58
76728;BME280;65652;53.132;18.026;2023-03-23T07:37:40;100029.58;;;14.16;57.85
76728;BME280;65652;53.132;18.026;2023-03-23T07:40:08;100033.46;;;14.35;58.16
76728;BME280;65652;53.132;18.026;2023-03-23T07:42:37;100038.75;;;14.56;57.28
76728;BME280;65652;53.132;18.026;2023-03-23T07:45:11;100037.16;;;14.59;56.98
76728;BME280;65652;53.132;18.026;2023-03-23T07:47:39;100033.13;;;14.54;56.90
76728;BME280;65652;53.132;18.026;2023-03-23T07:50:06;100027.48;;;14.52;57.04
76728;BME280;65652;53.132;18.026;2023-03-23T07:52:42;100027.52;;;14.51;56.77
76728;BME280;65652;53.132;18.026;2023-03-23T07:55:11;100033.75;;;14.56;56.25
76728;BME280;65652;53.132;18.026;2023-03-23T07:58:12;100034.20;;;14.64;55.93
76728;BME280;65652;53.132;18.026;2023-03-23T08:00:46;100047.23;;;14.68;55.95
76728;BME280;65652;53.132;18.026;2023-03-23T08:03:15;100045.08;;;14.62;56.53
76728;BME280;65652;53.132;18.026;2023-03-23T08:05:51;100046.17;;;14.58;56.64
76728;BME280;65652;53.132;18.026;2023-03-23T08:08:36;100046.71;;;14.53;56.41
76728;BME280;65652;53.132;18.026;2023-03-23T08:11:22;100035.56;;;14.54;57.19
76728;BME280;65652;53.132;18.026;2023-03-23T08:13:54;100045.63;;;14.59;56.58
76728;BME280;65652;53.132;18.026;2023-03-23T08:16:41;100048.41;;;14.61;56.86
76728;BME280;65652;53.132;18.026;2023-03-23T08:19:08;100057.01;;;14.62;56.74
76728;BME280;65652;53.132;18.026;2023-03-23T08:21:46;100054.98;;;14.60;56.41
76728;BME280;65652;53.132;18.026;2023-03-23T08:24:43;100052.67;;;14.52;56.48
76728;BME280;65652;53.132;18.026;2023-03-23T08:27:36;100051.08;;;14.48;56.79
76728;BME280;65652;53.132;18.026;2023-03-23T08:30:17;100051.41;;;14.44;57.20
76728;BME280;65652;53.132;18.026;2023-03-23T08:33:13;100052.22;;;14.44;56.16
76728;BME280;65652;53.132;18.026;2023-03-23T08:36:00;100059.15;;;14.45;56.49
76728;BME280;65652;53.132;18.026;2023-03-23T08:38:49;100051.92;;;14.51;56.92
76728;BME280;65652;53.132;18.026;2023-03-23T08:41:41;100045.92;;;14.58;56.65
76728;BME280;65652;53.132;18.026;2023-03-23T08:44:31;100038.13;;;14.67;56.69
76728;BME280;65652;53.132;18.026;2023-03-23T08:47:14;100042.19;;;14.78;56.55
76728;BME280;65652;53.132;18.026;2023-03-23T08:49:46;100049.20;;;14.85;56.78
76728;BME280;65652;53.132;18.026;2023-03-23T08:52:32;100042.64;;;14.82;55.53
76728;BME280;65652;53.132;18.026;2023-03-23T08:55:17;100038.47;;;14.78;56.08
76728;BME280;65652;53.132;18.026;2023-03-23T08:58:07;100038.23;;;14.91;55.98
76728;BME280;65652;53.132;18.026;2023-03-23T09:00:54;100030.92;;;15.09;55.66
76728;BME280;65652;53.132;18.026;2023-03-23T09:03:37;100027.13;;;15.32;54.86
76728;BME280;65652;53.132;18.026;2023-03-23T09:06:26;100034.15;;;15.48;54.74
76728;BME280;65652;53.132;18.026;2023-03-23T09:08:54;100034.65;;;15.58;54.68
76728;BME280;65652;53.132;18.026;2023-03-23T09:11:25;100037.27;;;15.68;54.06
76728;BME280;65652;53.132;18.026;2023-03-23T09:13:52;100042.40;;;15.74;53.42
76728;BME280;65652;53.132;18.026;2023-03-23T09:16:19;100043.91;;;15.79;53.73
76728;BME280;65652;53.132;18.026;2023-03-23T09:18:46;100043.17;;;15.84;53.17
76728;BME280;65652;53.132;18.026;2023-03-23T09:21:13;100044.67;;;15.90;53.39
76728;BME280;65652;53.132;18.026;2023-03-23T09:23:40;100053.01;;;15.98;52.26
76728;BME280;65652;53.132;18.026;2023-03-23T09:26:10;100058.30;;;16.00;51.91
76728;BME280;65652;53.132;18.026;2023-03-23T09:28:37;100047.13;;;15.92;51.65
76728;BME280;65652;53.132;18.026;2023-03-23T09:31:04;100056.16;;;15.84;52.36
76728;BME280;65652;53.132;18.026;2023-03-23T09:33:31;100051.27;;;15.77;52.41
76728;BME280;65652;53.132;18.026;2023-03-23T09:36:02;100062.29;;;15.67;51.98
76728;BME280;65652;53.132;18.026;2023-03-23T09:38:29;100064.30;;;15.55;52.47
76728;BME280;65652;53.132;18.026;2023-03-23T09:41:31;100063.84;;;15.45;53.07
76728;BME280;65652;53.132;18.026;2023-03-23T09:46:54;100060.32;;;15.27;53.62
76728;BME280;65652;53.132;18.026;2023-03-23T09:49:33;100055.37;;;15.20;54.05
76728;BME280;65652;53.132;18.026;2023-03-23T09:54:51;100061.51;;;15.14;54.37
76728;BME280;65652;53.132;18.026;2023-03-23T10:00:29;100074.84;;;15.04;54.86
76728;BME280;65652;53.132;18.026;2023-03-23T10:05:39;100068.46;;;14.95;54.95
76728;BME280;65652;53.132;18.026;2023-03-23T10:08:13;100069.13;;;14.89;55.14
76728;BME280;65652;53.132;18.026;2023-03-23T10:15:51;100076.09;;;14.77;55.71
76728;BME280;65652;53.132;18.026;2023-03-23T10:18:36;100072.93;;;14.77;55.74
76728;BME280;65652;53.132;18.026;2023-03-23T10:21:03;100078.74;;;14.76;55.71
76728;BME280;65652;53.132;18.026;2023-03-23T10:23:58;100076.94;;;14.76;56.01
76728;BME280;65652;53.132;18.026;2023-03-23T10:31:52;100091.05;;;14.83;56.85
76728;BME280;65652;53.132;18.026;2023-03-23T10:34:40;100091.47;;;14.81;57.51
76728;BME280;65652;53.132;18.026;2023-03-23T10:37:27;100093.30;;;14.72;57.56
76728;BME280;65652;53.132;18.026;2023-03-23T10:40:00;100095.54;;;14.65;58.23
76728;BME280;65652;53.132;18.026;2023-03-23T10:42:30;100095.96;;;14.62;59.22
76728;BME280;65652;53.132;18.026;2023-03-23T10:45:00;100099.78;;;14.55;59.35
76728;BME280;65652;53.132;18.026;2023-03-23T10:47:37;100098.20;;;14.44;59.87
76728;BME280;65652;53.132;18.026;2023-03-23T10:50:06;100099.67;;;14.28;60.02
76728;BME280;65652;53.132;18.026;2023-03-23T10:52:40;100100.23;;;14.15;60.85
76728;BME280;65652;53.132;18.026;2023-03-23T10:55:14;100109.31;;;14.05;61.08
76728;BME280;65652;53.132;18.026;2023-03-23T10:57:47;100105.92;;;13.99;61.06
76728;BME280;65652;53.132;18.026;2023-03-23T11:03:04;100104.65;;;14.04;61.48
76728;BME280;65652;53.132;18.026;2023-03-23T11:05:36;100102.29;;;14.03;61.79
76728;BME280;65652;53.132;18.026;2023-03-23T11:08:11;100107.27;;;14.06;61.93
76728;BME280;65652;53.132;18.026;2023-03-23T11:10:42;100108.27;;;14.13;61.59
76728;BME280;65652;53.132;18.026;2023-03-23T11:13:16;100107.41;;;14.26;61.66
76728;BME280;65652;53.132;18.026;2023-03-23T11:15:45;100111.08;;;14.35;61.66
76728;BME280;65652;53.132;18.026;2023-03-23T11:18:20;100115.67;;;14.45;61.54
76728;BME280;65652;53.132;18.026;2023-03-23T11:20:55;100115.83;;;14.53;61.47
76728;BME280;65652;53.132;18.026;2023-03-23T11:23:29;100118.31;;;14.55;60.35
76728;BME280;65652;53.132;18.026;2023-03-23T11:26:00;100116.33;;;14.52;60.91
76728;BME280;65652;53.132;18.026;2023-03-23T11:28:33;100117.39;;;14.53;61.22
76728;BME280;65652;53.132;18.026;2023-03-23T11:31:03;100111.39;;;14.54;61.01
76728;BME280;65652;53.132;18.026;2023-03-23T11:36:32;100106.99;;;14.53;61.21
76728;BME280;65652;53.132;18.026;2023-03-23T11:39:00;100105.75;;;14.56;61.66
76728;BME280;65652;53.132;18.026;2023-03-23T11:41:34;100107.42;;;14.55;61.13
76728;BME280;65652;53.132;18.026;2023-03-23T11:44:10;100099.92;;;14.55;61.12
76728;BME280;65652;53.132;18.026;2023-03-23T11:47:02;100101.53;;;14.54;61.41
76728;BME280;65652;53.132;18.026;2023-03-23T11:52:43;100111.57;;;14.50;61.29
76728;BME280;65652;53.132;18.026;2023-03-23T11:58:17;100111.33;;;14.39;61.09
76728;BME280;65652;53.132;18.026;2023-03-23T12:13:05;100105.05;;;14.48;61.31
76728;BME280;65652;53.132;18.026;2023-03-23T12:15:41;100105.23;;;14.51;61.11
76728;BME280;65652;53.132;18.026;2023-03-23T12:24:08;100095.84;;;14.94;60.34
76728;BME280;65652;53.132;18.026;2023-03-23T12:30:04;100092.65;;;14.91;60.55
76728;BME280;65652;53.132;18.026;2023-03-23T12:32:42;100092.98;;;14.98;60.53
76728;BME280;65652;53.132;18.026;2023-03-23T12:35:34;100091.34;;;15.00;59.97
76728;BME280;65652;53.132;18.026;2023-03-23T12:43:45;100090.46;;;14.88;60.02
76728;BME280;65652;53.132;18.026;2023-03-23T12:52:02;100083.44;;;14.73;59.93
76728;BME280;65652;53.132;18.026;2023-03-23T12:54:51;100080.09;;;14.72;60.31
76728;BME280;65652;53.132;18.026;2023-03-23T12:57:32;100081.77;;;14.69;59.91
76728;BME280;65652;53.132;18.026;2023-03-23T13:00:28;100084.17;;;14.67;59.79
76728;BME280;65652;53.132;18.026;2023-03-23T13:03:04;100084.85;;;14.64;59.98
76728;BME280;65652;53.132;18.026;2023-03-23T13:08:15;100091.06;;;14.63;59.98
76728;BME280;65652;53.132;18.026;2023-03-23T13:10:49;100087.02;;;14.62;59.70
76728;BME280;65652;53.132;18.026;2023-03-23T13:13:39;100085.93;;;14.61;59.67
76728;BME280;65652;53.132;18.026;2023-03-23T13:16:14;100083.61;;;14.61;60.00
76728;BME280;65652;53.132;18.026;2023-03-23T13:21:32;100088.34;;;14.66;59.65
76728;BME280;65652;53.132;18.026;2023-03-23T13:24:02;100086.34;;;14.68;59.51
76728;BME280;65652;53.132;18.026;2023-03-23T13:26:31;100089.34;;;14.72;59.24
76728;BME280;65652;53.132;18.026;2023-03-23T13:29:00;100085.27;;;14.73;59.24
76728;BME280;65652;53.132;18.026;2023-03-23T13:31:33;100084.31;;;14.74;59.09
76728;BME280;65652;53.132;18.026;2023-03-23T13:36:53;100091.27;;;14.73;59.10
76728;BME280;65652;53.132;18.026;2023-03-23T13:39:27;100093.14;;;14.73;59.35
76728;BME280;65652;53.132;18.026;2023-03-23T13:49:59;100091.38;;;14.72;58.50
76728;BME280;65652;53.132;18.026;2023-03-23T13:57:56;100086.89;;;14.77;58.91
76728;BME280;65652;53.132;18.026;2023-03-23T14:05:39;100085.59;;;14.92;59.04
76728;BME280;65652;53.132;18.026;2023-03-23T14:10:38;100080.11;;;14.93;59.07
76728;BME280;65652;53.132;18.026;2023-03-23T14:13:20;100082.54;;;14.93;59.37
76728;BME280;65652;53.132;18.026;2023-03-23T14:16:03;100085.22;;;14.92;59.33
76728;BME280;65652;53.132;18.026;2023-03-23T14:18:37;100086.63;;;14.89;59.59
76728;BME280;65652;53.132;18.026;2023-03-23T14:21:05;100081.40;;;14.83;59.58
76728;BME280;65652;53.132;18.026;2023-03-23T14:23:33;100078.11;;;14.81;59.95
76728;BME280;65652;53.132;18.026;2023-03-23T14:26:03;100083.48;;;14.81;59.98
76728;BME280;65652;53.132;18.026;2023-03-23T14:28:39;100082.38;;;14.80;59.90
76728;BME280;65652;53.132;18.026;2023-03-23T14:31:32;100084.80;;;14.77;60.02
76728;BME280;65652;53.132;18.026;2023-03-23T14:34:03;100079.67;;;14.74;60.15
76728;BME280;65652;53.132;18.026;2023-03-23T14:36:31;100080.16;;;14.71;60.01
76728;BME280;65652;53.132;18.026;2023-03-23T14:39:17;100078.63;;;14.69;60.19
76728;BME280;65652;53.132;18.026;2023-03-23T14:41:46;100070.75;;;14.67;60.41
76728;BME280;65652;53.132;18.026;2023-03-23T14:44:16;100071.19;;;14.66;60.54
76728;BME280;65652;53.132;18.026;2023-03-23T14:46:45;100076.02;;;14.65;60.31
76728;BME280;65652;53.132;18.026;2023-03-23T14:49:16;100068.15;;;14.64;60.41
76728;BME280;65652;53.132;18.026;2023-03-23T14:51:51;100063.60;;;14.64;60.59
76728;BME280;65652;53.132;18.026;2023-03-23T14:54:27;100065.27;;;14.63;60.50
76728;BME280;65652;53.132;18.026;2023-03-23T14:56:55;100066.04;;;14.62;60.55
76728;BME280;65652;53.132;18.026;2023-03-23T14:59:22;100068.80;;;14.63;60.65
76728;BME280;65652;53.132;18.026;2023-03-23T15:01:50;100068.83;;;14.63;60.42